createdAt,value
2017-10-02T00:02:15.658Z,31.00
2017-10-02T00:04:50.544Z,26.03
2017-10-02T00:07:25.126Z,38.43
2017-10-02T00:10:00.428Z,27.00
2017-10-02T00:12:34.889Z,30.63
2017-10-02T00:15:15.313Z,22.30
2017-10-02T00:17:49.833Z,25.40
2017-10-02T00:20:24.336Z,25.93
2017-10-02T00:22:58.834Z,27.67
2017-10-02T00:25:33.394Z,27.40
2017-10-02T00:28:07.938Z,22.60
2017-10-02T00:30:42.489Z,31.07
2017-10-02T00:33:16.982Z,28.57
2017-10-02T00:35:51.626Z,25.10
2017-10-02T00:38:26.293Z,28.60
2017-10-02T00:41:01.573Z,30.50
2017-10-02T00:43:36.195Z,28.50
2017-10-02T00:46:10.954Z,21.57
2017-10-02T00:48:45.622Z,27.00
2017-10-02T00:51:20.310Z,30.20
2017-10-02T00:53:54.971Z,28.97
2017-10-02T00:56:29.633Z,27.93
2017-10-02T00:59:04.065Z,33.37
2017-10-02T01:01:38.601Z,24.37
2017-10-02T01:04:13.178Z,23.73
2017-10-02T01:06:47.853Z,27.03
2017-10-02T01:09:22.373Z,26.80
2017-10-02T01:11:56.900Z,26.27
2017-10-02T01:14:31.388Z,26.63
2017-10-02T01:17:05.922Z,29.47
2017-10-02T01:19:40.581Z,33.77
2017-10-02T01:22:15.175Z,24.07
2017-10-02T01:24:49.658Z,29.13
2017-10-02T01:27:24.322Z,34.20
2017-10-02T01:29:58.970Z,26.73
2017-10-02T01:32:33.619Z,28.63
2017-10-02T01:35:14.898Z,34.37
2017-10-02T01:37:49.378Z,24.30
2017-10-02T01:40:30.155Z,33.63
2017-10-02T01:43:04.753Z,27.90
2017-10-02T01:45:39.370Z,26.47
2017-10-02T01:48:14.023Z,26.23
2017-10-02T01:50:48.592Z,24.80
2017-10-02T01:53:23.165Z,32.17
2017-10-02T01:55:57.766Z,24.67
2017-10-02T01:58:32.619Z,22.70
2017-10-02T02:01:07.254Z,23.53
2017-10-02T02:03:41.823Z,25.57
2017-10-02T02:06:16.305Z,25.03
2017-10-02T02:08:50.770Z,27.53
2017-10-02T02:11:25.319Z,25.47
2017-10-02T02:13:59.825Z,26.10
2017-10-02T02:16:34.378Z,23.00
2017-10-02T02:19:09.019Z,22.63
2017-10-02T02:21:43.459Z,26.60
2017-10-02T02:24:17.914Z,27.13
2017-10-02T02:26:52.493Z,30.20
2017-10-02T02:29:26.946Z,30.00
2017-10-02T02:32:01.486Z,29.63
2017-10-02T02:34:36.918Z,26.47
2017-10-02T02:37:11.540Z,28.30
2017-10-02T02:39:46.055Z,31.07
2017-10-02T02:42:20.499Z,28.13
2017-10-02T02:44:55.898Z,30.50
2017-10-02T02:47:30.697Z,27.53
2017-10-02T02:50:13.734Z,27.20
2017-10-02T02:52:48.366Z,30.03
2017-10-02T02:55:23.176Z,30.60
2017-10-02T02:57:57.619Z,30.57
2017-10-02T03:00:32.192Z,21.83
2017-10-02T03:03:06.787Z,29.13
2017-10-02T03:05:41.319Z,24.83
2017-10-02T03:08:16.000Z,24.23
2017-10-02T03:10:50.674Z,28.07
2017-10-02T03:13:25.238Z,29.00
2017-10-02T03:15:59.811Z,27.43
2017-10-02T03:18:35.162Z,25.57
2017-10-02T03:21:10.594Z,25.53
2017-10-02T03:23:45.221Z,32.00
2017-10-02T03:26:19.875Z,32.63
2017-10-02T03:28:54.522Z,24.23
2017-10-02T03:31:29.023Z,27.80
2017-10-02T03:34:03.611Z,28.93
2017-10-02T03:36:38.170Z,28.57
2017-10-02T03:39:12.806Z,28.30
2017-10-02T03:41:47.382Z,40.53
2017-10-02T03:44:22.838Z,36.90
2017-10-02T03:46:57.373Z,34.00
2017-10-02T03:49:31.960Z,35.40
2017-10-02T03:52:06.758Z,26.77
2017-10-02T03:54:41.282Z,28.97
2017-10-02T03:57:15.805Z,30.43
2017-10-02T03:59:50.360Z,29.23
2017-10-02T04:02:25.745Z,26.80
2017-10-02T04:05:00.164Z,31.40
2017-10-02T04:07:34.698Z,35.33
2017-10-02T04:10:14.978Z,34.20
2017-10-02T04:12:49.574Z,28.00
2017-10-02T04:15:24.297Z,26.83
2017-10-02T04:17:58.774Z,30.77
2017-10-02T04:20:33.342Z,25.37
2017-10-02T04:23:08.682Z,25.67
2017-10-02T04:25:43.406Z,25.23
2017-10-02T04:28:17.926Z,23.50
2017-10-02T04:30:52.595Z,31.03
2017-10-02T04:33:27.098Z,29.87
2017-10-02T04:36:01.705Z,28.93
2017-10-02T04:38:36.191Z,26.70
2017-10-02T04:41:10.767Z,23.70
2017-10-02T04:43:45.266Z,26.80
2017-10-02T04:46:20.623Z,27.67
2017-10-02T04:48:55.175Z,31.17
2017-10-02T04:51:29.870Z,24.20
2017-10-02T04:54:04.485Z,29.63
2017-10-02T04:56:39.015Z,28.10
2017-10-02T04:59:13.609Z,30.40
2017-10-02T05:01:48.130Z,45.90
2017-10-02T05:04:22.934Z,33.10
2017-10-02T05:06:57.454Z,42.40
2017-10-02T05:09:32.355Z,48.97
2017-10-02T05:12:07.715Z,31.67
2017-10-02T05:14:42.315Z,35.70
2017-10-02T05:17:16.853Z,35.10
2017-10-02T05:19:52.197Z,41.60
2017-10-02T05:22:26.889Z,36.27
2017-10-02T05:25:01.483Z,31.50
2017-10-02T05:27:36.078Z,40.23
2017-10-02T05:30:16.520Z,33.40
2017-10-02T05:32:51.038Z,38.57
2017-10-02T05:35:25.614Z,35.20
2017-10-02T05:38:00.122Z,41.00
2017-10-02T05:40:34.757Z,36.40
2017-10-02T05:43:09.330Z,32.57
2017-10-02T05:45:43.834Z,34.23
2017-10-02T05:48:18.577Z,39.00
2017-10-02T05:50:53.669Z,27.93
2017-10-02T05:53:28.275Z,26.67
2017-10-02T05:56:02.830Z,36.50
2017-10-02T05:58:37.423Z,28.70
2017-10-02T06:01:12.031Z,31.23
2017-10-02T06:03:46.596Z,29.37
2017-10-02T06:06:21.129Z,30.27
2017-10-02T06:08:55.848Z,27.93
2017-10-02T06:11:30.550Z,27.23
2017-10-02T06:14:05.193Z,28.20
2017-10-02T06:16:39.726Z,28.80
2017-10-02T06:19:14.196Z,29.17
2017-10-02T06:21:48.731Z,28.30
2017-10-02T06:24:23.402Z,23.33
2017-10-02T06:26:58.203Z,30.50
2017-10-02T06:29:32.904Z,29.73
2017-10-02T06:32:07.774Z,24.80
2017-10-02T06:34:42.279Z,20.90
2017-10-02T06:37:16.846Z,22.17
2017-10-02T06:39:51.288Z,21.23
2017-10-02T06:42:25.846Z,27.60
2017-10-02T06:45:00.274Z,27.30
2017-10-02T06:47:34.938Z,24.90
2017-10-02T06:50:17.217Z,29.87
2017-10-02T06:52:51.653Z,22.43
2017-10-02T06:55:26.369Z,30.27
2017-10-02T06:58:00.981Z,26.30
2017-10-02T07:00:35.521Z,23.67
2017-10-02T07:03:10.059Z,26.63
2017-10-02T07:05:45.230Z,31.63
2017-10-02T07:08:19.730Z,19.27
2017-10-02T07:10:54.286Z,22.00
2017-10-02T07:13:28.781Z,23.33
2017-10-02T07:16:03.362Z,23.70
2017-10-02T07:18:38.002Z,24.63
2017-10-02T07:21:12.495Z,17.93
2017-10-02T07:23:47.182Z,25.10
2017-10-02T07:26:21.494Z,20.87
2017-10-02T07:28:56.134Z,21.20
2017-10-02T07:31:30.759Z,20.60
2017-10-02T07:34:05.364Z,20.47
2017-10-02T07:36:39.858Z,20.27
2017-10-02T07:39:14.531Z,22.43
2017-10-02T07:41:49.022Z,27.13
2017-10-02T07:44:23.549Z,27.60
2017-10-02T07:46:58.242Z,23.07
2017-10-02T07:49:32.731Z,19.83
2017-10-02T07:52:07.203Z,20.70
2017-10-02T07:54:41.682Z,17.03
2017-10-02T07:57:16.193Z,17.13
2017-10-02T07:59:50.633Z,18.30
2017-10-02T08:02:25.502Z,13.00
2017-10-02T08:05:00.174Z,16.40
2017-10-02T08:07:34.754Z,17.40
2017-10-02T08:10:15.726Z,15.53
2017-10-02T08:12:50.414Z,26.37
2017-10-02T08:15:25.034Z,18.03
2017-10-02T08:18:00.442Z,9.00
2017-10-02T08:20:35.153Z,16.70
2017-10-02T08:23:09.586Z,13.83
2017-10-02T08:25:44.182Z,14.30
2017-10-02T08:28:18.734Z,21.60
2017-10-02T08:30:53.263Z,8.00
2017-10-02T08:33:27.823Z,13.60
2017-10-02T08:36:02.121Z,12.60
2017-10-02T08:38:36.753Z,10.73
2017-10-02T08:41:11.319Z,15.93
2017-10-02T08:43:45.995Z,13.10
2017-10-02T08:46:21.422Z,25.20
2017-10-02T08:48:55.962Z,17.43
2017-10-02T08:51:30.507Z,11.57
2017-10-02T08:54:05.007Z,24.50
2017-10-02T08:56:39.558Z,12.50
2017-10-02T08:59:14.062Z,16.00
2017-10-02T09:01:48.599Z,20.67
2017-10-02T09:04:23.051Z,16.20
2017-10-02T09:06:57.666Z,17.60
2017-10-02T09:09:32.398Z,14.73
2017-10-02T09:12:06.995Z,9.93
2017-10-02T09:14:41.490Z,17.53
2017-10-02T09:17:16.111Z,18.23
2017-10-02T09:19:51.458Z,13.70
2017-10-02T09:22:26.026Z,15.17
2017-10-02T09:25:00.557Z,18.23
2017-10-02T09:27:35.077Z,11.33
2017-10-02T09:30:15.474Z,14.40
2017-10-02T09:32:50.098Z,17.70
2017-10-02T09:35:24.740Z,15.60
2017-10-02T09:37:59.189Z,12.77
2017-10-02T09:40:33.830Z,17.03
2017-10-02T09:43:08.274Z,15.30
2017-10-02T09:45:42.881Z,13.20
2017-10-02T09:48:17.543Z,10.47
2017-10-02T09:50:52.090Z,12.90
2017-10-02T09:53:26.602Z,17.57
2017-10-02T09:56:01.138Z,15.13
2017-10-02T09:58:35.618Z,18.90
2017-10-02T10:01:10.201Z,20.73
2017-10-02T10:03:44.841Z,14.90
2017-10-02T10:06:19.218Z,15.67
2017-10-02T10:08:53.724Z,19.10
2017-10-02T10:11:27.849Z,11.80
2017-10-02T10:14:02.418Z,10.57
2017-10-02T10:16:36.954Z,17.30
2017-10-02T10:19:12.387Z,14.93
2017-10-02T10:21:46.841Z,12.20
2017-10-02T10:24:21.398Z,12.90
2017-10-02T10:26:55.953Z,10.20
2017-10-02T10:29:30.534Z,9.67
2017-10-02T10:32:05.084Z,9.93
2017-10-02T10:34:39.739Z,13.87
2017-10-02T10:37:14.161Z,11.13
2017-10-02T10:39:48.777Z,12.73
2017-10-02T10:42:23.358Z,17.73
2017-10-02T10:44:58.115Z,9.23
2017-10-02T10:47:32.828Z,18.40
2017-10-02T10:50:16.142Z,15.30
2017-10-02T10:52:50.630Z,9.10
2017-10-02T10:55:25.211Z,10.03
2017-10-02T10:57:59.665Z,15.60
2017-10-02T11:00:34.271Z,10.37
2017-10-02T11:03:08.887Z,17.60
2017-10-02T11:05:43.295Z,13.87
2017-10-02T11:08:17.773Z,10.43
2017-10-02T11:10:52.409Z,9.80
2017-10-02T11:13:26.819Z,25.10
2017-10-02T11:16:01.508Z,11.37
2017-10-02T11:18:36.035Z,13.27
2017-10-02T11:21:10.617Z,17.30
2017-10-02T11:23:45.287Z,21.63
2017-10-02T11:26:19.920Z,13.00
2017-10-02T11:28:54.368Z,20.77
2017-10-02T11:31:28.850Z,15.33
2017-10-02T11:34:03.273Z,18.40
2017-10-02T11:36:37.598Z,17.00
2017-10-02T11:39:12.171Z,24.60
2017-10-02T11:41:46.654Z,11.57
2017-10-02T11:44:21.330Z,10.50
2017-10-02T11:46:55.820Z,11.40
2017-10-02T11:49:30.143Z,16.17
2017-10-02T11:52:04.648Z,8.30
2017-10-02T11:54:39.241Z,20.07
2017-10-02T11:57:13.766Z,12.50
2017-10-02T11:59:48.391Z,13.13
2017-10-02T12:02:22.956Z,21.20
2017-10-02T12:04:57.515Z,12.37
2017-10-02T12:07:31.997Z,15.30
2017-10-02T12:10:10.269Z,9.73
2017-10-02T12:12:44.819Z,22.10
2017-10-02T12:15:19.306Z,12.97
2017-10-02T12:17:53.902Z,13.57
2017-10-02T12:20:28.503Z,9.40
2017-10-02T12:23:03.257Z,14.60
2017-10-02T12:25:37.752Z,9.70
2017-10-02T12:28:12.175Z,12.90
2017-10-02T12:30:46.762Z,11.87
2017-10-02T12:33:21.285Z,16.23
2017-10-02T12:35:55.917Z,13.47
2017-10-02T12:38:30.557Z,11.23
2017-10-02T12:41:05.070Z,17.33
2017-10-02T12:43:39.659Z,18.37
2017-10-02T12:46:14.706Z,17.37
2017-10-02T12:48:49.366Z,22.97
2017-10-02T12:51:24.058Z,34.63
2017-10-02T12:53:58.673Z,21.17
2017-10-02T12:56:33.431Z,21.53
2017-10-02T12:59:08.070Z,20.30
2017-10-02T13:01:42.534Z,16.90
2017-10-02T13:04:17.224Z,16.37
2017-10-02T13:06:51.778Z,31.93
2017-10-02T13:09:26.353Z,22.30
2017-10-02T13:12:00.814Z,26.10
2017-10-02T13:14:35.314Z,16.40
2017-10-02T13:17:09.889Z,30.43
2017-10-02T13:19:44.506Z,24.57
2017-10-02T13:22:19.243Z,23.53
2017-10-02T13:24:53.738Z,21.37
2017-10-02T13:27:28.366Z,15.60
2017-10-02T13:32:44.314Z,17.23
2017-10-02T13:35:18.786Z,29.40
2017-10-02T13:37:53.262Z,18.73
2017-10-02T13:40:27.943Z,21.40
2017-10-02T13:43:02.582Z,16.50
2017-10-02T13:45:37.217Z,13.67
2017-10-02T13:48:11.920Z,14.93
2017-10-02T13:50:47.163Z,24.60
2017-10-02T13:53:21.754Z,20.53
2017-10-02T13:55:56.372Z,21.70
2017-10-02T13:58:30.854Z,19.80
2017-10-02T14:01:06.162Z,16.50
2017-10-02T14:03:40.440Z,34.47
2017-10-02T14:06:14.771Z,21.40
2017-10-02T14:08:49.122Z,14.30
2017-10-02T14:11:23.479Z,14.30
2017-10-02T14:13:57.735Z,18.93
2017-10-02T14:16:32.322Z,17.40
2017-10-02T14:19:06.945Z,13.53
2017-10-02T14:21:41.466Z,12.60
2017-10-02T14:24:16.100Z,27.83
2017-10-02T14:26:50.791Z,24.57
2017-10-02T14:29:25.405Z,32.73
2017-10-02T14:32:00.054Z,20.90
2017-10-02T14:34:34.713Z,23.30
2017-10-02T14:37:09.230Z,33.37
2017-10-02T14:39:44.160Z,25.50
2017-10-02T14:42:18.805Z,15.07
2017-10-02T14:44:53.302Z,14.43
2017-10-02T14:47:27.874Z,16.83
2017-10-02T14:50:03.832Z,28.03
2017-10-02T14:52:45.385Z,27.27
2017-10-02T14:55:19.945Z,14.63
2017-10-02T14:57:54.547Z,21.43
2017-10-02T15:00:29.114Z,22.10
2017-10-02T15:03:04.570Z,15.53
2017-10-02T15:05:39.106Z,21.77
2017-10-02T15:08:13.745Z,19.40
2017-10-02T15:10:48.318Z,23.33
2017-10-02T15:13:22.963Z,16.77
2017-10-02T15:15:57.527Z,20.17
2017-10-02T15:18:32.938Z,19.97
2017-10-02T15:21:07.571Z,26.17
2017-10-02T15:23:42.109Z,22.53
2017-10-02T15:26:16.649Z,14.43
2017-10-02T15:28:51.327Z,19.63
2017-10-02T15:31:25.862Z,30.33
2017-10-02T15:34:00.809Z,29.97
2017-10-02T15:36:35.443Z,24.97
2017-10-02T15:39:10.004Z,22.80
2017-10-02T15:41:44.618Z,20.40
2017-10-02T15:44:19.422Z,34.13
2017-10-02T15:46:53.914Z,28.00
2017-10-02T15:49:28.358Z,30.03
2017-10-02T15:52:03.132Z,32.27
2017-10-02T15:54:37.815Z,30.27
2017-10-02T15:57:12.422Z,28.80
2017-10-02T15:59:46.930Z,25.03
2017-10-02T16:02:21.494Z,30.13
2017-10-02T16:04:56.154Z,22.30
2017-10-02T16:07:30.685Z,31.10
2017-10-02T16:10:14.251Z,47.87
2017-10-02T16:12:48.853Z,20.33
2017-10-02T16:15:23.530Z,34.33
2017-10-02T16:17:58.943Z,17.40
2017-10-02T16:20:33.597Z,23.43
2017-10-02T16:23:08.214Z,29.23
2017-10-02T16:25:42.792Z,28.60
2017-10-02T16:28:17.482Z,28.23
2017-10-02T16:30:52.062Z,18.50
2017-10-02T16:33:26.850Z,26.30
2017-10-02T16:36:01.458Z,22.53
2017-10-02T16:38:36.058Z,28.67
2017-10-02T16:41:10.671Z,29.87
2017-10-02T16:43:45.138Z,35.80
2017-10-02T16:46:19.709Z,20.90
2017-10-02T16:48:54.609Z,21.57
2017-10-02T16:51:29.223Z,23.17
2017-10-02T16:54:03.735Z,20.90
2017-10-02T16:56:38.295Z,28.93
2017-10-02T16:59:12.954Z,52.33
2017-10-02T17:01:47.523Z,41.57
2017-10-02T17:04:21.982Z,26.50
2017-10-02T17:06:56.562Z,24.33
2017-10-02T17:09:31.034Z,27.33
2017-10-02T17:12:05.664Z,21.80
2017-10-02T17:14:40.106Z,16.27
2017-10-02T17:17:14.653Z,22.10
2017-10-02T17:19:49.264Z,20.77
2017-10-02T17:22:23.814Z,19.90
2017-10-02T17:24:58.106Z,28.63
2017-10-02T17:27:32.657Z,25.47
2017-10-02T17:30:14.386Z,24.77
2017-10-02T17:32:49.014Z,26.70
2017-10-02T17:35:23.636Z,20.37
2017-10-02T17:37:58.310Z,23.77
2017-10-02T17:40:32.597Z,30.57
2017-10-02T17:43:07.262Z,30.93
2017-10-02T17:45:41.798Z,23.17
2017-10-02T17:48:16.335Z,32.77
2017-10-02T17:50:50.869Z,20.43
2017-10-02T17:53:25.438Z,20.87
2017-10-02T17:56:00.030Z,17.37
2017-10-02T17:58:34.514Z,19.13
2017-10-02T18:01:09.064Z,23.50
2017-10-02T18:03:43.511Z,22.33
2017-10-02T18:06:18.086Z,24.20
2017-10-02T18:08:52.679Z,23.73
2017-10-02T18:11:27.282Z,41.20
2017-10-02T18:14:03.493Z,25.80
2017-10-02T18:16:38.117Z,22.73
2017-10-02T18:19:12.890Z,35.23
2017-10-02T18:21:47.446Z,21.20
2017-10-02T18:24:22.094Z,20.40
2017-10-02T18:26:56.730Z,29.53
2017-10-02T18:29:31.343Z,26.00
2017-10-02T18:32:05.934Z,26.60
2017-10-02T18:34:40.461Z,17.30
2017-10-02T18:37:15.186Z,28.40
2017-10-02T18:39:49.675Z,23.70
2017-10-02T18:42:24.209Z,40.63
2017-10-02T18:44:58.838Z,34.23
2017-10-02T18:47:33.426Z,22.40
2017-10-02T18:50:14.796Z,24.93
2017-10-02T18:52:49.450Z,24.83
2017-10-02T18:55:24.034Z,23.90
2017-10-02T18:57:58.627Z,23.23
2017-10-02T19:00:33.324Z,24.13
2017-10-02T19:03:10.808Z,26.47
2017-10-02T19:05:45.354Z,21.20
2017-10-02T19:08:19.849Z,27.00
2017-10-02T19:10:55.078Z,21.10
2017-10-02T19:13:30.563Z,26.77
2017-10-02T19:16:05.231Z,23.33
2017-10-02T19:18:39.819Z,27.30
2017-10-02T19:21:14.338Z,28.07
2017-10-02T19:23:48.917Z,30.20
2017-10-02T19:26:23.429Z,26.87
2017-10-02T19:28:57.917Z,19.70
2017-10-02T19:31:32.502Z,29.70
2017-10-02T19:34:07.238Z,23.77
2017-10-02T19:36:41.878Z,27.10
2017-10-02T19:39:16.582Z,23.33
2017-10-02T19:41:51.110Z,18.37
2017-10-02T19:44:26.325Z,19.40
2017-10-02T19:47:00.798Z,22.67
2017-10-02T19:49:35.376Z,32.13
2017-10-02T19:52:10.035Z,30.97
2017-10-02T19:54:44.654Z,43.97
2017-10-02T19:57:19.115Z,27.67
2017-10-02T19:59:53.788Z,28.03
2017-10-02T20:02:28.414Z,22.70
2017-10-02T20:05:03.249Z,23.07
2017-10-02T20:07:37.906Z,23.70
2017-10-02T20:10:14.330Z,22.63
2017-10-02T20:12:48.942Z,28.03
2017-10-02T20:15:23.486Z,27.17
2017-10-02T20:17:58.148Z,25.60
2017-10-02T20:20:32.766Z,24.73
2017-10-02T20:23:07.205Z,22.27
2017-10-02T20:25:41.698Z,23.50
2017-10-02T20:28:16.308Z,21.13
2017-10-02T20:30:50.863Z,22.53
2017-10-02T20:33:25.552Z,24.00
2017-10-02T20:36:00.300Z,20.63
2017-10-02T20:38:34.939Z,31.67
2017-10-02T20:41:09.526Z,25.77
2017-10-02T20:43:45.012Z,27.37
2017-10-02T20:46:19.675Z,23.20
2017-10-02T20:48:54.402Z,22.00
2017-10-02T20:51:28.884Z,26.40
2017-10-02T20:54:03.514Z,22.53
2017-10-02T20:56:38.193Z,23.50
2017-10-02T20:59:12.713Z,20.50
2017-10-02T21:01:47.337Z,25.30
2017-10-02T21:04:21.834Z,27.90
2017-10-02T21:06:56.522Z,23.87
2017-10-02T21:09:31.115Z,28.30
2017-10-02T21:12:05.643Z,31.70
2017-10-02T21:14:40.210Z,30.67
2017-10-02T21:17:14.559Z,28.10
2017-10-02T21:19:49.217Z,32.97
2017-10-02T21:22:23.493Z,26.57
2017-10-02T21:24:58.163Z,28.97
2017-10-02T21:27:32.774Z,23.60
2017-10-02T21:30:14.603Z,24.73
2017-10-02T21:32:49.222Z,20.40
2017-10-02T21:35:23.765Z,23.67
2017-10-02T21:37:59.185Z,24.83
2017-10-02T21:40:33.638Z,28.53
2017-10-02T21:43:08.853Z,22.80
2017-10-02T21:45:43.451Z,27.87
2017-10-02T21:48:17.882Z,26.03
2017-10-02T21:50:52.478Z,24.80
2017-10-02T21:53:26.926Z,24.93
2017-10-02T21:56:01.590Z,28.40
2017-10-02T21:58:36.098Z,22.47
2017-10-02T22:01:10.741Z,27.13
2017-10-02T22:03:45.286Z,38.63
2017-10-02T22:06:19.786Z,31.00
2017-10-02T22:08:54.394Z,26.47
2017-10-02T22:11:29.261Z,25.57
2017-10-02T22:14:03.722Z,27.40
2017-10-02T22:16:38.285Z,25.83
2017-10-02T22:19:12.983Z,28.83
2017-10-02T22:21:47.602Z,26.10
2017-10-02T22:24:21.887Z,30.37
2017-10-02T22:26:56.210Z,29.70
2017-10-02T22:29:30.682Z,31.40
2017-10-02T22:32:05.314Z,45.87
2017-10-02T22:34:39.843Z,25.83
2017-10-02T22:37:14.463Z,24.83
2017-10-02T22:39:49.061Z,30.73
2017-10-02T22:42:24.431Z,34.87
2017-10-02T22:44:59.067Z,28.30
2017-10-02T22:47:33.673Z,29.03
2017-10-02T22:50:14.063Z,23.03
2017-10-02T22:52:48.729Z,23.80
2017-10-02T22:55:23.466Z,23.10
2017-10-02T22:57:58.061Z,26.50
2017-10-02T23:00:33.129Z,23.47
2017-10-02T23:03:07.782Z,27.37
2017-10-02T23:05:43.158Z,25.97
2017-10-02T23:08:17.725Z,23.90
2017-10-02T23:10:52.221Z,25.73
2017-10-02T23:13:27.604Z,22.43
2017-10-02T23:16:02.105Z,33.47
2017-10-02T23:18:36.642Z,23.03
2017-10-02T23:21:11.270Z,24.33
2017-10-02T23:23:45.705Z,25.27
2017-10-02T23:26:20.234Z,30.40
2017-10-02T23:28:54.811Z,23.07
2017-10-02T23:31:29.329Z,29.30
2017-10-02T23:34:03.983Z,41.37
2017-10-02T23:36:38.514Z,23.57
2017-10-02T23:39:13.766Z,22.27
2017-10-02T23:41:48.199Z,27.70
2017-10-02T23:44:22.851Z,21.97
2017-10-02T23:46:57.450Z,26.80
2017-10-02T23:49:32.153Z,23.63
2017-10-02T23:52:06.722Z,21.07
2017-10-02T23:54:41.330Z,36.03
2017-10-02T23:57:16.087Z,27.20
2017-10-02T23:59:50.550Z,24.27
